Skip Navigation Links
NOAA logo - Click to go to the NOAA homepage
NOAA's National Weather Service
Alaska Aviation Weather Unit
  NWS logo - Click to go to the NWS homepage
Left Navbar Graphic     22 AKDT = 06 GMT

   
NOAA is celebrating 200 years of science, service, and stewardship. Visit the NOAA 200th celebration Web site to learn more.
USA.gov is the U.S. Government's official Web portal to all Federal, state and local government Web resources and services.
Facebook
NWS on Facebook

Important Change Regarding the AAWU Web Presence

 

Over the last several months, the AAWU has been working to navigate its webpages to a nationally supported server. Security, as well as other needs, have necessitated the change.  In the process, we have made an effort to enhance the functionality of our website, as well as some of our products. As of June 20, 2017, aawu.arh.noaa.gov will be discontinued. The new AAWU web address is weather.gov/aawu. It is now live and will run in-parallel with the old site until it is discontinued. Please send any feedback or questions regarding the new webpages to nws.ar.aawu.webauthors@noaa.gov.  Thank you for your patience during this time of transition.
AAWU Home :: Display TAF Add Bookmark
TAF PAMC 280537Z 2806/2906 VRB05KT P6SM SCT070 BKN120
     FM282200 10009G17KT P6SM BKN150
     FM290000 13009G17KT P6SM BKN100
     FM290500 15007KT P6SM BKN100=
METAR PAMC 280053Z 25009KT 10SM SCT055 BKN090 10/M01 A2998 RMK AO2
     SLP156 VIRGA SW-NW T01001011=

METAR PAMC 280153Z 25004KT 10SM FEW050 FEW095 12/M03 A2995 RMK AO2
     SLP148 VIRGA VCTY NE DSNT S AND W T01171028=

METAR PAMC 280253Z 00000KT 10SM FEW050 FEW100 13/M04 A2994 RMK AO2
 SLP142 T01281044 58011=

METAR PAMC 280353Z 13003KT 10SM BKN070 13/M04 A2993 RMK AO2 SLP138
     T01281039=

METAR PAMC 280453Z AUTO 06004KT 10SM CLR 12/M04 A2992 RMK AO2 SLP136
     T01221044 TSNO=

METAR PAMC 280553Z AUTO 27007KT 10SM SCT080 BKN100 OVC120 09/M02 A2992
     RMK AO2 SLP136 T00941017 10133 20094 56006 TSNO=


NOAA's National Weather Service
Alaska Aviation Weather Unit
6930 Sand Lake Road
Anchorage, AK 99502-1845
Disclaimer
Credits
Glossary
Privacy Policy
About Us
Career Opportunities
Contact AAWU Internet Services Site last modified: April, 17th 2012